createdAt,value
2022-08-26T00:01:54.674Z,18.38
2022-08-26T00:04:25.449Z,19.05
2022-08-26T00:06:54.916Z,17.08
2022-08-26T00:09:23.824Z,21.27
2022-08-26T00:11:54.045Z,17.75
2022-08-26T00:14:24.176Z,15.65
2022-08-26T00:16:55.741Z,18.67
2022-08-26T00:19:23.152Z,21.83
2022-08-26T00:21:51.304Z,20.02
2022-08-26T00:24:20.955Z,18.52
2022-08-26T00:26:49.611Z,17.65
2022-08-26T00:29:17.666Z,17.67
2022-08-26T00:31:45.648Z,15.63
2022-08-26T00:34:14.264Z,21.65
2022-08-26T00:36:43.734Z,21.95
2022-08-26T00:39:11.395Z,19.48
2022-08-26T00:41:40.732Z,21.60
2022-08-26T00:44:10.517Z,21.23
2022-08-26T00:46:49.427Z,18.33
2022-08-26T00:49:23.236Z,22.48
2022-08-26T00:51:54.173Z,23.15
2022-08-26T00:54:24.387Z,20.38
2022-08-26T00:56:57.797Z,19.27
2022-08-26T00:59:32.762Z,20.27
2022-08-26T01:02:02.684Z,19.98
2022-08-26T01:04:31.782Z,21.38
2022-08-26T01:07:00.229Z,18.05
2022-08-26T01:09:28.475Z,19.92
2022-08-26T01:12:01.032Z,22.25
2022-08-26T01:14:34.000Z,24.85
2022-08-26T01:17:05.107Z,22.27
2022-08-26T01:19:38.222Z,18.00
2022-08-26T01:22:33.487Z,19.27
2022-08-26T01:25:03.699Z,17.33
2022-08-26T01:30:03.052Z,20.08
2022-08-26T01:32:33.227Z,20.40
2022-08-26T01:35:02.203Z,21.95
2022-08-26T01:37:35.191Z,19.33
2022-08-26T01:40:04.355Z,19.35
2022-08-26T01:42:31.583Z,23.10
2022-08-26T01:45:05.600Z,21.77
2022-08-26T01:47:35.671Z,22.83
2022-08-26T01:50:07.985Z,17.92
2022-08-26T01:52:38.046Z,17.60
2022-08-26T01:55:06.344Z,19.13
2022-08-26T01:57:35.558Z,20.17
2022-08-26T02:00:06.709Z,19.05
2022-08-26T02:02:48.057Z,17.95
2022-08-26T02:05:20.569Z,18.95
2022-08-26T02:07:49.022Z,19.02
2022-08-26T02:10:16.475Z,18.85
2022-08-26T02:15:13.897Z,19.20
2022-08-26T02:17:45.021Z,15.88
2022-08-26T02:20:18.902Z,18.85
2022-08-26T02:22:47.702Z,20.48
2022-08-26T02:25:38.055Z,21.48
2022-08-26T02:30:33.832Z,19.17
2022-08-26T02:33:05.702Z,16.67
2022-08-26T02:35:34.727Z,18.88
2022-08-26T02:38:02.890Z,16.90
2022-08-26T02:40:41.088Z,19.42
2022-08-26T02:43:09.924Z,19.27
2022-08-26T02:45:37.196Z,18.88
2022-08-26T02:48:21.513Z,20.50
2022-08-26T02:50:49.370Z,20.02
2022-08-26T02:53:17.119Z,24.77
2022-08-26T02:55:51.639Z,23.63
2022-08-26T02:58:18.767Z,24.60
2022-08-26T03:00:52.900Z,19.35
2022-08-26T03:03:22.544Z,26.00
2022-08-26T03:05:51.477Z,24.23
2022-08-26T03:08:19.321Z,27.17
2022-08-26T03:10:48.028Z,26.90
2022-08-26T03:13:16.768Z,21.38
2022-08-26T03:15:44.482Z,21.20
2022-08-26T03:18:15.135Z,19.33
2022-08-26T03:20:42.361Z,22.63
2022-08-26T03:23:11.157Z,23.25
2022-08-26T03:25:38.240Z,21.83
2022-08-26T03:28:05.902Z,26.92
2022-08-26T03:30:44.212Z,24.10
2022-08-26T03:33:13.042Z,24.00
2022-08-26T03:35:42.933Z,23.58
2022-08-26T03:38:11.215Z,18.40
2022-08-26T03:40:38.972Z,24.35
2022-08-26T03:43:10.871Z,19.10
2022-08-26T03:45:38.259Z,19.42
2022-08-26T03:48:06.104Z,22.50
2022-08-26T03:50:35.765Z,19.35
2022-08-26T03:53:04.437Z,19.45
2022-08-26T03:55:34.562Z,21.20
2022-08-26T03:58:02.252Z,23.00
2022-08-26T04:00:30.154Z,19.98
2022-08-26T04:02:57.345Z,23.48
2022-08-26T04:05:25.422Z,25.17
2022-08-26T04:07:52.799Z,23.38
2022-08-26T04:10:28.551Z,31.20
2022-08-26T04:12:56.536Z,22.30
2022-08-26T04:15:27.145Z,25.25
2022-08-26T04:17:55.982Z,24.92
2022-08-26T04:20:24.620Z,25.80
2022-08-26T04:22:52.559Z,23.20
2022-08-26T04:25:20.644Z,20.20
2022-08-26T04:27:48.669Z,20.25
2022-08-26T04:30:17.911Z,20.50
2022-08-26T04:32:45.101Z,23.38
2022-08-26T04:35:12.330Z,21.27
2022-08-26T04:37:39.707Z,23.33
2022-08-26T04:40:10.621Z,18.95
2022-08-26T04:42:37.725Z,17.92
2022-08-26T04:45:05.900Z,18.17
2022-08-26T04:47:38.159Z,17.83
2022-08-26T04:50:07.461Z,19.95
2022-08-26T04:52:36.351Z,20.13
2022-08-26T04:55:06.591Z,22.97
2022-08-26T04:57:35.705Z,18.10
2022-08-26T05:00:05.964Z,17.83
2022-08-26T05:05:00.070Z,20.80
2022-08-26T05:07:27.124Z,17.85
2022-08-26T05:09:54.338Z,15.80
2022-08-26T05:12:22.027Z,20.25
2022-08-26T05:14:49.274Z,18.23
2022-08-26T05:17:16.375Z,22.33
2022-08-26T05:19:43.480Z,24.48
2022-08-26T05:22:10.803Z,20.73
2022-08-26T05:24:41.286Z,26.75
2022-08-26T05:27:11.856Z,17.65
2022-08-26T05:29:40.889Z,23.80
2022-08-26T05:32:08.069Z,20.60
2022-08-26T05:34:35.205Z,18.15
2022-08-26T05:39:33.587Z,20.17
2022-08-26T05:42:01.577Z,20.58
2022-08-26T05:44:29.413Z,24.52
2022-08-26T05:47:16.456Z,23.70
2022-08-26T05:49:51.363Z,21.85
2022-08-26T05:52:19.375Z,23.77
2022-08-26T05:54:47.606Z,20.92
2022-08-26T05:57:14.962Z,26.15
2022-08-26T05:59:42.349Z,27.67
2022-08-26T06:02:10.213Z,22.65
2022-08-26T06:04:37.377Z,23.83
2022-08-26T06:07:05.539Z,28.58
2022-08-26T06:09:38.583Z,29.02
2022-08-26T06:12:06.080Z,24.85
2022-08-26T06:14:33.129Z,28.33
2022-08-26T06:17:00.939Z,26.55
2022-08-26T06:19:32.807Z,27.58
2022-08-26T06:22:23.464Z,25.27
2022-08-26T06:25:09.935Z,30.03
2022-08-26T06:27:37.109Z,26.98
2022-08-26T06:30:04.801Z,22.77
2022-08-26T06:32:32.000Z,26.58
2022-08-26T06:34:59.131Z,29.70
2022-08-26T06:37:26.531Z,25.02
2022-08-26T06:39:53.715Z,31.75
2022-08-26T06:42:22.810Z,25.90
2022-08-26T06:44:51.694Z,27.23
2022-08-26T06:47:18.753Z,31.98
2022-08-26T06:49:45.888Z,31.10
2022-08-26T06:52:13.054Z,22.20
2022-08-26T06:54:43.282Z,32.50
2022-08-26T06:57:13.151Z,29.60
2022-08-26T06:59:43.789Z,31.17
2022-08-26T07:02:13.415Z,28.90
2022-08-26T07:04:41.499Z,27.88
2022-08-26T07:07:09.661Z,27.80
2022-08-26T07:09:37.534Z,33.28
2022-08-26T07:12:06.838Z,27.10
2022-08-26T07:14:34.854Z,27.05
2022-08-26T07:17:02.090Z,22.75
2022-08-26T07:19:31.365Z,27.33
2022-08-26T07:22:04.611Z,28.98
2022-08-26T07:24:33.544Z,23.33
2022-08-26T07:27:05.677Z,25.20
2022-08-26T07:29:34.397Z,26.63
2022-08-26T07:32:02.126Z,20.20
2022-08-26T07:34:33.187Z,24.38
2022-08-26T07:37:01.123Z,23.75
2022-08-26T07:39:31.641Z,27.48
2022-08-26T07:42:02.612Z,25.08
2022-08-26T07:44:36.150Z,23.85
2022-08-26T07:47:10.482Z,22.52
2022-08-26T07:49:54.984Z,26.40
2022-08-26T07:52:27.834Z,24.48
2022-08-26T07:55:01.121Z,20.13
2022-08-26T07:57:29.391Z,21.35
2022-08-26T07:59:57.360Z,22.65
2022-08-26T08:02:25.734Z,20.75
2022-08-26T08:04:53.468Z,20.45
2022-08-26T08:07:21.688Z,20.60
2022-08-26T08:10:11.398Z,24.33
2022-08-26T08:12:39.588Z,21.98
2022-08-26T08:15:07.688Z,22.60
2022-08-26T08:17:34.926Z,24.35
2022-08-26T08:20:03.373Z,18.88
2022-08-26T08:22:32.600Z,19.83
2022-08-26T08:25:00.015Z,20.55
2022-08-26T08:29:57.399Z,19.95
2022-08-26T08:32:24.559Z,16.60
2022-08-26T08:34:51.725Z,16.88
2022-08-26T08:37:18.922Z,26.65
2022-08-26T08:39:46.067Z,14.98
2022-08-26T08:42:38.199Z,17.23
2022-08-26T08:45:15.489Z,20.58
2022-08-26T08:48:00.871Z,18.40
2022-08-26T08:50:56.737Z,17.42
2022-08-26T08:53:24.661Z,16.45
2022-08-26T08:56:17.166Z,18.33
2022-08-26T08:59:08.205Z,16.30
2022-08-26T09:01:47.886Z,17.30
2022-08-26T09:04:38.050Z,19.63
2022-08-26T09:07:09.036Z,15.80
2022-08-26T09:09:51.499Z,12.13
2022-08-26T09:12:31.264Z,12.50
2022-08-26T09:15:07.543Z,12.82
2022-08-26T09:18:07.215Z,11.80
2022-08-26T09:21:00.479Z,14.07
2022-08-26T09:23:28.251Z,11.65
2022-08-26T09:26:02.466Z,15.75
2022-08-26T09:28:32.261Z,12.10
2022-08-26T09:31:19.611Z,14.45
2022-08-26T09:33:46.870Z,18.83
2022-08-26T09:36:39.515Z,12.85
2022-08-26T09:39:37.635Z,14.15
2022-08-26T09:42:25.599Z,17.48
2022-08-26T09:44:55.934Z,19.35
2022-08-26T09:47:35.278Z,21.33
2022-08-26T09:50:09.569Z,18.63
2022-08-26T09:52:37.770Z,16.67
2022-08-26T09:55:20.790Z,18.25
2022-08-26T10:00:33.603Z,16.35
2022-08-26T10:03:06.925Z,20.42
2022-08-26T10:05:47.777Z,17.52
2022-08-26T10:08:47.439Z,19.05
2022-08-26T10:11:21.290Z,17.17
2022-08-26T10:13:58.170Z,15.45
2022-08-26T10:16:34.974Z,16.58
2022-08-26T10:19:12.198Z,15.43
2022-08-26T10:21:53.951Z,18.70
2022-08-26T10:24:32.138Z,18.63
2022-08-26T10:27:03.108Z,16.20
2022-08-26T10:29:39.039Z,15.90
2022-08-26T10:32:16.046Z,22.40
2022-08-26T10:34:43.923Z,15.80
2022-08-26T10:37:22.864Z,11.48
2022-08-26T10:40:08.720Z,19.15
2022-08-26T10:42:46.332Z,12.95
2022-08-26T10:45:17.832Z,12.10
2022-08-26T10:48:00.141Z,13.38
2022-08-26T10:50:33.355Z,14.95
2022-08-26T10:53:09.409Z,12.05
2022-08-26T10:55:43.589Z,11.18
2022-08-26T10:58:29.314Z,13.18
2022-08-26T11:01:40.848Z,15.05
2022-08-26T11:04:31.272Z,12.20
2022-08-26T11:07:31.708Z,16.27
2022-08-26T11:10:06.916Z,15.93
2022-08-26T11:12:37.380Z,14.98
2022-08-26T11:15:10.276Z,19.98
2022-08-26T11:17:46.710Z,11.73
2022-08-26T11:20:23.881Z,10.65
2022-08-26T11:22:53.540Z,19.27
2022-08-26T11:25:29.740Z,11.35
2022-08-26T11:27:59.919Z,13.52
2022-08-26T11:30:37.030Z,15.63
2022-08-26T11:33:06.190Z,16.58
2022-08-26T11:35:42.211Z,17.03
2022-08-26T11:38:42.117Z,11.50
2022-08-26T11:41:17.689Z,14.95
2022-08-26T11:43:47.645Z,14.23
2022-08-26T11:46:25.843Z,13.68
2022-08-26T11:49:06.055Z,12.02
2022-08-26T11:51:40.440Z,13.18
2022-08-26T11:54:11.457Z,14.77
2022-08-26T11:59:11.602Z,12.80
2022-08-26T12:01:42.178Z,13.13
2022-08-26T12:04:25.212Z,9.18
2022-08-26T12:06:53.619Z,10.07
2022-08-26T12:09:35.012Z,14.77
2022-08-26T12:12:21.778Z,10.30
2022-08-26T12:14:49.164Z,12.80
2022-08-26T12:17:19.366Z,9.82
2022-08-26T12:19:49.599Z,12.77
2022-08-26T12:22:32.116Z,13.48
2022-08-26T12:25:03.576Z,8.50
2022-08-26T12:27:45.607Z,13.10
2022-08-26T12:30:26.192Z,9.75
2022-08-26T12:33:22.979Z,14.43
2022-08-26T12:35:56.653Z,9.75
2022-08-26T12:38:26.316Z,10.95
2022-08-26T12:40:54.767Z,8.55
2022-08-26T12:43:45.981Z,7.43
2022-08-26T12:46:17.948Z,10.18
2022-08-26T12:48:48.920Z,15.82
2022-08-26T12:51:29.323Z,10.25
2022-08-26T12:53:58.274Z,12.50
2022-08-26T12:56:39.125Z,11.60
2022-08-26T12:59:19.950Z,8.05
2022-08-26T13:01:49.539Z,12.18
2022-08-26T13:04:33.866Z,7.30
2022-08-26T13:07:33.410Z,11.48
2022-08-26T13:10:01.254Z,12.05
2022-08-26T13:12:32.751Z,10.20
2022-08-26T13:15:01.506Z,12.80
2022-08-26T13:17:30.446Z,7.28
2022-08-26T13:20:03.480Z,9.15
2022-08-26T13:22:31.280Z,9.38
2022-08-26T13:24:58.571Z,9.18
2022-08-26T13:27:27.397Z,7.32
2022-08-26T13:29:57.261Z,10.25
2022-08-26T13:34:56.450Z,17.20
2022-08-26T13:37:34.241Z,14.20
2022-08-26T13:40:05.014Z,15.30
2022-08-26T13:42:32.169Z,14.30
2022-08-26T13:44:59.896Z,15.45
2022-08-26T13:47:27.690Z,16.80
2022-08-26T13:49:56.477Z,13.07
2022-08-26T13:52:30.374Z,16.40
2022-08-26T13:55:00.309Z,16.58
2022-08-26T13:57:28.627Z,16.52
2022-08-26T13:59:57.304Z,13.07
2022-08-26T14:02:25.404Z,16.08
2022-08-26T14:04:53.867Z,15.55
2022-08-26T14:07:21.195Z,15.55
2022-08-26T14:09:51.478Z,14.25
2022-08-26T14:12:18.868Z,13.90
2022-08-26T14:14:45.919Z,14.85
2022-08-26T14:17:19.509Z,15.93
2022-08-26T14:19:48.611Z,12.75
2022-08-26T14:22:17.632Z,17.10
2022-08-26T14:24:45.822Z,10.18
2022-08-26T14:27:13.603Z,19.20
2022-08-26T14:29:41.335Z,16.92
2022-08-26T14:32:17.182Z,14.65
2022-08-26T14:34:48.050Z,19.60
2022-08-26T14:37:15.518Z,12.80
2022-08-26T14:39:42.789Z,12.38
2022-08-26T14:42:10.369Z,13.02
2022-08-26T14:44:37.831Z,17.75
2022-08-26T14:47:06.758Z,14.52
2022-08-26T14:49:33.952Z,12.85
2022-08-26T14:52:01.196Z,14.23
2022-08-26T14:54:29.633Z,14.05
2022-08-26T14:57:07.227Z,15.27
2022-08-26T14:59:37.358Z,15.25
2022-08-26T15:02:06.110Z,12.75
2022-08-26T15:04:33.956Z,10.32
2022-08-26T15:07:01.688Z,11.15
2022-08-26T15:09:30.507Z,10.48
2022-08-26T15:11:58.015Z,10.60
2022-08-26T15:14:26.059Z,12.10
2022-08-26T15:16:57.086Z,12.32
2022-08-26T15:19:27.638Z,11.63
2022-08-26T15:21:54.786Z,10.20
2022-08-26T15:24:24.898Z,16.95
2022-08-26T15:26:52.658Z,13.23
2022-08-26T15:29:20.448Z,11.27
2022-08-26T15:31:47.797Z,11.40
2022-08-26T15:34:16.926Z,15.07
2022-08-26T15:36:46.621Z,12.95
2022-08-26T15:39:14.958Z,11.25
2022-08-26T15:41:42.114Z,13.57
2022-08-26T15:44:10.718Z,10.23
2022-08-26T15:46:38.666Z,9.43
2022-08-26T15:49:07.184Z,12.18
2022-08-26T15:51:45.868Z,10.90
2022-08-26T15:54:14.292Z,12.73
2022-08-26T15:56:43.513Z,13.43
2022-08-26T15:59:11.801Z,13.35
2022-08-26T16:01:40.051Z,12.80
2022-08-26T16:04:07.318Z,9.73
2022-08-26T16:06:37.397Z,10.05
2022-08-26T16:11:31.752Z,12.38
2022-08-26T16:13:58.831Z,13.35
2022-08-26T16:16:26.702Z,9.82
2022-08-26T16:18:54.027Z,14.40
2022-08-26T16:21:28.052Z,9.48
2022-08-26T16:23:57.062Z,12.00
2022-08-26T16:26:33.222Z,12.98
2022-08-26T16:29:09.896Z,16.83
2022-08-26T16:31:40.698Z,14.25
2022-08-26T16:34:08.993Z,12.50
2022-08-26T16:36:37.841Z,10.98
2022-08-26T16:39:06.284Z,10.43
2022-08-26T16:41:34.061Z,14.15
2022-08-26T16:44:02.066Z,12.20
2022-08-26T16:46:29.708Z,18.08
2022-08-26T16:48:58.525Z,11.85
2022-08-26T16:51:28.030Z,13.15
2022-08-26T16:53:56.987Z,11.77
2022-08-26T16:56:34.238Z,16.50
2022-08-26T16:59:05.027Z,18.83
2022-08-26T17:04:47.251Z,14.00
2022-08-26T17:07:17.773Z,17.10
2022-08-26T17:09:45.087Z,16.05
2022-08-26T17:12:12.506Z,11.80
2022-08-26T17:14:39.827Z,15.40
2022-08-26T17:17:07.009Z,16.83
2022-08-26T17:19:39.106Z,17.75
2022-08-26T17:22:10.524Z,16.88
2022-08-26T17:24:38.243Z,13.68
2022-08-26T17:27:05.849Z,12.82
2022-08-26T17:29:33.424Z,16.63
2022-08-26T17:32:00.656Z,10.93
2022-08-26T17:34:27.730Z,14.35
2022-08-26T17:36:55.226Z,15.20
2022-08-26T17:39:22.631Z,16.80
2022-08-26T17:41:49.809Z,15.93
2022-08-26T17:44:16.911Z,15.65
2022-08-26T17:46:43.954Z,13.35
2022-08-26T17:49:11.031Z,17.95
2022-08-26T17:51:38.097Z,14.07
2022-08-26T17:54:06.154Z,17.05
2022-08-26T17:56:33.479Z,19.08
2022-08-26T17:59:02.530Z,17.65
2022-08-26T18:04:00.460Z,11.73
2022-08-26T18:08:55.669Z,16.38
2022-08-26T18:11:24.630Z,14.00
2022-08-26T18:13:51.860Z,8.68
2022-08-26T18:16:20.105Z,8.90
2022-08-26T18:18:48.770Z,12.77
2022-08-26T18:21:19.467Z,8.63
2022-08-26T18:23:47.156Z,20.55
2022-08-26T18:26:27.902Z,9.30
2022-08-26T18:28:55.750Z,7.93
2022-08-26T18:31:23.654Z,6.07
2022-08-26T18:33:51.064Z,4.82
2022-08-26T18:36:23.589Z,7.22
2022-08-26T18:38:51.952Z,9.02
2022-08-26T18:41:21.796Z,7.03
2022-08-26T18:43:50.687Z,6.40
2022-08-26T18:46:19.447Z,10.93
2022-08-26T18:48:51.022Z,6.88
2022-08-26T18:51:31.872Z,8.82
2022-08-26T18:54:00.197Z,5.97
2022-08-26T18:56:28.105Z,7.78
2022-08-26T18:58:55.160Z,8.55
2022-08-26T19:01:26.751Z,6.47
2022-08-26T19:03:56.263Z,7.32
2022-08-26T19:06:24.483Z,8.40
2022-08-26T19:08:51.697Z,6.45
2022-08-26T19:11:31.221Z,8.48
2022-08-26T19:14:01.390Z,11.05
2022-08-26T19:16:30.534Z,10.18
2022-08-26T19:18:58.512Z,9.93
2022-08-26T19:21:25.812Z,10.40
2022-08-26T19:24:00.009Z,11.35
2022-08-26T19:26:28.719Z,7.55
2022-08-26T19:28:56.190Z,7.63
2022-08-26T19:31:23.288Z,9.05
2022-08-26T19:33:50.693Z,12.52
2022-08-26T19:36:23.898Z,9.77
2022-08-26T19:38:51.341Z,8.88
2022-08-26T19:41:24.559Z,12.02
2022-08-26T19:43:55.616Z,8.80
2022-08-26T19:46:26.747Z,7.70
2022-08-26T19:48:55.818Z,13.25
2022-08-26T19:51:29.332Z,10.48
2022-08-26T19:53:59.014Z,9.35
2022-08-26T19:56:28.183Z,14.98
2022-08-26T19:58:55.895Z,9.13
2022-08-26T20:01:23.731Z,12.23
2022-08-26T20:03:50.956Z,10.00
2022-08-26T20:06:18.336Z,10.23
2022-08-26T20:08:45.711Z,9.35
2022-08-26T20:11:16.353Z,10.95
2022-08-26T20:13:45.007Z,11.73
2022-08-26T20:16:12.388Z,9.02
2022-08-26T20:19:00.640Z,9.60
2022-08-26T20:21:30.103Z,8.50
2022-08-26T20:24:10.949Z,12.37
2022-08-26T20:26:40.100Z,10.10
2022-08-26T20:29:08.873Z,10.57
2022-08-26T20:31:36.012Z,8.15
2022-08-26T20:34:04.818Z,9.02
2022-08-26T20:36:32.278Z,11.57
2022-08-26T20:38:59.556Z,8.38
2022-08-26T20:41:27.765Z,8.75
2022-08-26T20:43:56.140Z,11.93
2022-08-26T20:46:25.047Z,7.53
2022-08-26T20:48:53.354Z,13.13
2022-08-26T20:51:21.167Z,7.88
2022-08-26T20:53:48.501Z,11.63
2022-08-26T20:56:23.756Z,12.93
2022-08-26T20:58:53.318Z,11.65
2022-08-26T21:01:28.315Z,6.47
2022-08-26T21:03:57.070Z,8.43
2022-08-26T21:06:24.139Z,7.75
2022-08-26T21:08:51.415Z,7.72
2022-08-26T21:11:20.296Z,9.95
2022-08-26T21:14:04.441Z,7.20
2022-08-26T21:16:39.304Z,9.77
2022-08-26T21:19:10.734Z,8.77
2022-08-26T21:21:38.352Z,10.77
2022-08-26T21:24:05.918Z,6.28
2022-08-26T21:26:33.163Z,10.45
2022-08-26T21:29:02.382Z,7.95
2022-08-26T21:31:31.980Z,13.13
2022-08-26T21:33:59.868Z,10.43
2022-08-26T21:36:27.363Z,9.20
2022-08-26T21:39:01.284Z,8.73
2022-08-26T21:41:28.849Z,9.80
2022-08-26T21:43:59.347Z,9.45
2022-08-26T21:46:29.259Z,11.02
2022-08-26T21:49:03.681Z,8.23
2022-08-26T21:51:36.647Z,11.70
2022-08-26T21:54:10.156Z,8.10
2022-08-26T21:56:44.358Z,9.82
2022-08-26T21:59:12.277Z,8.13
2022-08-26T22:01:39.728Z,10.57
2022-08-26T22:04:10.540Z,10.40
2022-08-26T22:06:44.801Z,11.65
2022-08-26T22:09:14.048Z,8.75
2022-08-26T22:11:41.670Z,9.50
2022-08-26T22:14:09.456Z,9.77
2022-08-26T22:16:36.592Z,9.93
2022-08-26T22:19:03.848Z,8.30
2022-08-26T22:21:31.225Z,7.70
2022-08-26T22:23:58.802Z,11.30
2022-08-26T22:26:29.190Z,10.48
2022-08-26T22:28:58.827Z,12.50
2022-08-26T22:31:37.903Z,10.57
2022-08-26T22:34:12.829Z,15.50
2022-08-26T22:36:43.850Z,9.88
2022-08-26T22:39:18.347Z,11.75
2022-08-26T22:41:48.732Z,11.30
2022-08-26T22:44:17.247Z,7.60
2022-08-26T22:46:45.668Z,11.77
2022-08-26T22:49:17.123Z,13.30
2022-08-26T22:51:45.778Z,15.65
2022-08-26T22:54:13.963Z,12.00
2022-08-26T22:56:41.188Z,11.63
2022-08-26T22:59:08.761Z,7.55
2022-08-26T23:01:38.040Z,9.45
2022-08-26T23:04:06.667Z,11.82
2022-08-26T23:06:38.189Z,7.88
2022-08-26T23:09:07.295Z,12.32
2022-08-26T23:11:34.796Z,12.10
2022-08-26T23:14:02.870Z,10.43
2022-08-26T23:16:39.421Z,11.15
2022-08-26T23:19:07.775Z,11.65
2022-08-26T23:21:35.254Z,11.18
2022-08-26T23:24:02.572Z,12.80
2022-08-26T23:26:29.687Z,13.02
2022-08-26T23:28:56.779Z,10.25
2022-08-26T23:31:24.113Z,8.38
2022-08-26T23:34:09.729Z,8.30
2022-08-26T23:36:37.259Z,9.73
2022-08-26T23:39:06.071Z,11.43
2022-08-26T23:41:33.152Z,9.18
2022-08-26T23:44:03.401Z,7.55
2022-08-26T23:46:35.320Z,12.07
2022-08-26T23:49:03.262Z,10.93
2022-08-26T23:51:49.224Z,8.18
2022-08-26T23:54:16.355Z,8.95
2022-08-26T23:56:43.430Z,9.88
2022-08-26T23:59:10.467Z,9.35
